This is the latest recevied weather packets stored in our database for station/object W9GWP. If no packets are shown the sender has not sent any weather packets the latest 10 day(s).
| Time | Temp. | Humidity | Pressure | Rain* | Wind** | Luminosity | Snow |
|---|---|---|---|---|---|---|---|
| 1778163063 | 8.33° C | 53% | 1044.5 hPa | 0 mm | - | 354 W/m² | - |
| 1778162160 | 7.78° C | 53% | 1044.4 hPa | 0 mm | - | 241 W/m² | - |
| 1778161255 | 7.22° C | 56% | 1044.4 hPa | 0 mm | - | 259 W/m² | - |
| 1778160352 | 6.67° C | 60% | 1044.6 hPa | 0 mm | - | 113 W/m² | - |
| 1778159448 | 6.11° C | 62% | 1044.6 hPa | 0 mm | - | 95 W/m² | - |
| 1778158547 | 6.11° C | 65% | 1044.7 hPa | 0 mm | - | 77 W/m² | - |
| 1778157644 | 6.67° C | 62% | 1044.5 hPa | 0 mm | - | 106 W/m² | - |
| 1778156744 | 5.56° C | 66% | 1044.4 hPa | 0 mm | - | 77 W/m² | - |
| 1778155844 | 5° C | 70% | 1044.5 hPa | 0 mm | - | 86 W/m² | - |
| 1778154940 | 3.89° C | 73% | 1044.2 hPa | 0 mm | - | 48 W/m² | - |
| 1778154035 | 3.33° C | 77% | 1044.1 hPa | 0 mm | - | 45 W/m² | - |
| 1778153133 | 1.67° C | 82% | 1044.3 hPa | 0 mm | - | 21 W/m² | - |
| 1778152229 | 0.56° C | 85% | 1044.3 hPa | 0 mm | - | 12 W/m² | - |
| 1778151325 | 0° C | 87% | 1043.8 hPa | 0 mm | - | 5 W/m² | - |
| 1778150420 | 0° C | 87% | 1043.7 hPa | 0 mm | - | 0 W/m² | - |
| 1778149516 | 0° C | 88% | 1043.8 hPa | 0 mm | - | 0 W/m² | - |
| 1778148616 | 0° C | 88% | 1043.8 hPa | 0 mm | - | 0 W/m² | - |
| 1778147714 | -0.56° C | 88% | 1043.8 hPa | 0 mm | - | 0 W/m² | - |
| 1778146810 | 0° C | 87% | 1044.1 hPa | 0 mm | - | 0 W/m² | - |
| 1778145908 | 0° C | 87% | 1044.2 hPa | 0 mm | - | 0 W/m² | - |
| 1778145003 | 0° C | 87% | 1044.2 hPa | 0 mm | - | 0 W/m² | - |
| 1778144099 | 0.56° C | 86% | 1044.1 hPa | 0 mm | - | 0 W/m² | - |
| 1778143196 | 0.56° C | 85% | 1044 hPa | 0 mm | - | 0 W/m² | - |
| 1778142290 | 0.56° C | 84% | 1044.1 hPa | 0 mm | - | 0 W/m² | - |
| 1778141387 | 1.11° C | 82% | 1044.2 hPa | 0 mm | - | 0 W/m² | - |
* Rain latest hour (hover to see other rain measurements)
** Current wind speed in m/s (hover to see current wind gust speed)